Time;durP1;ratioP1;P1;durP2;ratioP2;P2;SDS_P1;SDS_P2;PMS_P1;PMS_P2;Temp;Humidity;BMP_temperature;BMP_pressure;BME280_temperature;BME280_humidity;BME280_pressure;Samples;Min_cycle;Max_cycle;Signal;HPM_P1;HPM_P2
2022/03/11 00:00:26;;;;;;;;;;;;;;;;;;5019192;28;20004;-85
2022/03/11 00:02:51;;;;;;;;;;;;;;;;;;5019114;28;19985;-85
2022/03/11 00:05:17;;;;;;;;;;;;;;;;;;5018978;28;19905;-85
2022/03/11 00:07:42;;;;;;;;;;;;;;;;;;5018483;28;19909;-85
2022/03/11 00:10:07;;;;;;;;;;;;;;;;;;5017216;28;20385;-83
2022/03/11 00:12:32;;;;;;;;;;;;;;;;;;5018370;28;20285;-86
2022/03/11 00:14:57;;;;;;;;;;;;;;;;;;5018093;28;20020;-85
2022/03/11 00:17:23;;;;;;;;;;;;;;;;;;5019298;28;19909;-85
2022/03/11 00:19:48;;;;;;;;;;;;;;;;;;5017936;28;20363;-84
2022/03/11 00:22:13;;;;;;;;;;;;;;;;;;5018151;28;19893;-85
2022/03/11 00:24:38;;;;;;;;;;;;;;;;;;5019461;28;19917;-85
2022/03/11 00:27:03;;;;;;;;;;;;;;;;;;5016869;28;20007;-84
2022/03/11 00:29:28;;;;;;;;;;;;;;;;;;5018007;28;19909;-84
2022/03/11 00:31:53;;;;;;;;;;;;;;;;;;5018333;28;19924;-85
2022/03/11 00:34:18;;;;;;;;;;;;;;;;;;5018066;28;19981;-85
2022/03/11 00:36:44;;;;;;;;;;;;;;;;;;5017658;28;19920;-85
2022/03/11 00:39:09;;;;;;;;;;;;;;;;;;5018889;28;20005;-85
2022/03/11 00:41:34;;;;;;;;;;;;;;;;;;5018917;28;20398;-83
2022/03/11 00:43:59;;;;;;;;;;;;;;;;;;5017437;28;19917;-86
2022/03/11 00:46:24;;;;;;;;;;;;;;;;;;5017263;28;19910;-85
2022/03/11 00:48:49;;;;;;;;;;;;;;;;;;5018020;28;19913;-83
2022/03/11 00:51:15;;;;;;;;;;;;;;;;;;5018164;28;19917;-83
2022/03/11 00:53:40;;;;;;;;;;;;;;;;;;5020186;28;19918;-83
2022/03/11 00:56:05;;;;;;;;;;;;;;;;;;5023075;28;19897;-84
2022/03/11 00:58:30;;;;;;;;;;;;;;;;;;5020504;28;20386;-84
2022/03/11 01:00:55;;;;;;;;;;;;;;;;;;5022393;28;19921;-82
2022/03/11 01:03:20;;;;;;;;;;;;;;;;;;5021687;28;20426;-84
2022/03/11 01:05:45;;;;;;;;;;;;;;;;;;5022220;28;20260;-84
2022/03/11 01:08:10;;;;;;;;;;;;;;;;;;5022361;28;19905;-82
2022/03/11 01:10:35;;;;;;;;;;;;;;;;;;5022712;28;19913;-85
2022/03/11 01:13:01;;;;;;;;;;;;;;;;;;5022106;28;19921;-84
2022/03/11 01:15:26;;;;;;;;;;;;;;;;;;5023389;28;19909;-83
2022/03/11 01:17:51;;;;;;;;;;;;;;;;;;5021409;28;19913;-83
2022/03/11 01:20:16;;;;;;;;;;;;;;;;;;5021891;28;19963;-84
2022/03/11 01:22:41;;;;;;;;;;;;;;;;;;5021929;28;19910;-85
2022/03/11 01:25:06;;;;;;;;;;;;;;;;;;5023389;28;19918;-85
2022/03/11 01:27:31;;;;;;;;;;;;;;;;;;5021753;28;19965;-83
2022/03/11 01:29:56;;;;;;;;;;;;;;;;;;5021201;28;19932;-84
2022/03/11 01:32:21;;;;;;;;;;;;;;;;;;5022568;28;20071;-84
2022/03/11 01:34:46;;;;;;;;;;;;;;;;;;5022034;28;20478;-84
2022/03/11 01:37:12;;;;;;;;;;;;;;;;;;5022437;28;19977;-84
2022/03/11 01:39:37;;;;;;;;;;;;;;;;;;5023729;28;19916;-83
2022/03/11 01:42:02;;;;;;;;;;;;;;;;;;5023688;28;20012;-85
2022/03/11 01:44:27;;;;;;;;;;;;;;;;;;5022167;28;19932;-84
2022/03/11 01:46:52;;;;;;;;;;;;;;;;;;5022400;28;19905;-82
2022/03/11 01:49:17;;;;;;;;;;;;;;;;;;5023758;28;20004;-83
2022/03/11 01:51:42;;;;;;;;;;;;;;;;;;5021724;28;19996;-82
2022/03/11 01:54:07;;;;;;;;;;;;;;;;;;5023313;28;19923;-84
2022/03/11 01:56:33;;;;;;;;;;;;;;;;;;5022315;28;19920;-84
2022/03/11 01:58:58;;;;;;;;;;;;;;;;;;5022205;28;19914;-88
2022/03/11 02:01:23;;;;;;;;;;;;;;;;;;5021876;28;19956;-83
2022/03/11 02:03:49;;;;;;;;;;;;;;;;;;5023067;28;19917;-83
2022/03/11 02:06:14;;;;;;;;;;;;;;;;;;5021063;28;19917;-84
2022/03/11 02:08:39;;;;;;;;;;;;;;;;;;5022582;28;19909;-81
2022/03/11 02:11:04;;;;;;;;;;;;;;;;;;5021123;28;19928;-83
2022/03/11 02:13:29;;;;;;;;;;;;;;;;;;5021771;28;19979;-84
2022/03/11 02:15:54;;;;;;;;;;;;;;;;;;5021198;28;19910;-83
2022/03/11 02:18:19;;;;;;;;;;;;;;;;;;5021768;28;20334;-83
2022/03/11 02:20:46;;;;;;;;;;;;;;;;;;5022049;28;20371;-82
2022/03/11 02:23:11;;;;;;;;;;;;;;;;;;5021708;28;19969;-84
2022/03/11 02:25:36;;;;;;;;;;;;;;;;;;5022229;28;19941;-82
2022/03/11 02:28:01;;;;;;;;;;;;;;;;;;5021393;28;19917;-84
2022/03/11 02:30:27;;;;;;;;;;;;;;;;;;5021498;28;19916;-82
2022/03/11 02:32:52;;;;;;;;;;;;;;;;;;5021757;28;19917;-83
2022/03/11 02:35:17;;;;;;;;;;;;;;;;;;5021572;28;20032;-84
2022/03/11 02:37:42;;;;;;;;;;;;;;;;;;5021754;28;20359;-83
2022/03/11 02:40:07;;;;;;;;;;;;;;;;;;5021775;28;19913;-84
2022/03/11 02:42:32;;;;;;;;;;;;;;;;;;5022995;28;19952;-83
2022/03/11 02:44:58;;;;;;;;;;;;;;;;;;5021022;28;19964;-83
2022/03/11 02:47:23;;;;;;;;;;;;;;;;;;5020991;28;19909;-83
2022/03/11 02:49:48;;;;;;;;;;;;;;;;;;5022192;28;20302;-85
2022/03/11 02:52:13;;;;;;;;;;;;;;;;;;5022348;28;19989;-84
2022/03/11 02:54:38;;;;;;;;;;;;;;;;;;5021938;28;19914;-84
2022/03/11 02:57:03;;;;;;;;;;;;;;;;;;5021222;28;19956;-84
2022/03/11 02:59:28;;;;;;;;;;;;;;;;;;5022497;28;19933;-83
2022/03/11 03:01:53;;;;;;;;;;;;;;;;;;5032205;28;19925;-84
2022/03/11 03:04:18;;;;;;;;;;;;;;;;;;5037109;28;19916;-84
2022/03/11 03:06:43;;;;;;;;;;;;;;;;;;5037878;28;19910;-83
2022/03/11 03:09:09;;;;;;;;;;;;;;;;;;5023204;28;19909;-83
2022/03/11 03:11:34;;;;;;;;;;;;;;;;;;5037671;28;19924;-85
2022/03/11 03:13:59;;;;;;;;;;;;;;;;;;5037998;28;19909;-84
2022/03/11 03:16:24;;;;;;;;;;;;;;;;;;5036571;28;19910;-82
2022/03/11 03:18:49;;;;;;;;;;;;;;;;;;5035538;28;19941;-82
2022/03/11 03:21:14;;;;;;;;;;;;;;;;;;5036564;28;19909;-84
2022/03/11 03:23:39;;;;;;;;;;;;;;;;;;5022017;28;19917;-83
2022/03/11 03:26:04;;;;;;;;;;;;;;;;;;5021700;28;19909;-85
2022/03/11 03:28:29;;;;;;;;;;;;;;;;;;5036633;28;19918;-83
2022/03/11 03:30:55;;;;;;;;;;;;;;;;;;5036719;28;19921;-83
2022/03/11 03:33:20;;;;;;;;;;;;;;;;;;5036465;28;19909;-81
2022/03/11 03:35:45;;;;;;;;;;;;;;;;;;5020087;28;20286;-83
2022/03/11 03:38:10;;;;;;;;;;;;;;;;;;5036446;28;20008;-81
2022/03/11 03:40:35;;;;;;;;;;;;;;;;;;5036517;28;19909;-86
2022/03/11 03:43:00;;;;;;;;;;;;;;;;;;5036159;28;19910;-84
2022/03/11 03:45:25;;;;;;;;;;;;;;;;;;5035965;28;19898;-83
2022/03/11 03:47:50;;;;;;;;;;;;;;;;;;5036078;28;19910;-83
2022/03/11 03:50:15;;;;;;;;;;;;;;;;;;5034798;28;19916;-82
2022/03/11 03:52:41;;;;;;;;;;;;;;;;;;5019827;28;19953;-83
2022/03/11 03:55:06;;;;;;;;;;;;;;;;;;5020944;28;19917;-84
2022/03/11 03:57:32;;;;;;;;;;;;;;;;;;5019887;28;19940;-84
2022/03/11 03:59:57;;;;;;;;;;;;;;;;;;5035287;28;20359;-83
2022/03/11 04:02:23;;;;;;;;;;;;;;;;;;5034915;28;19906;-83
2022/03/11 04:04:48;;;;;;;;;;;;;;;;;;5019655;28;20379;-85
2022/03/11 04:07:14;;;;;;;;;;;;;;;;;;5034281;28;20398;-83
2022/03/11 04:09:39;;;;;;;;;;;;;;;;;;5019914;28;19932;-83
2022/03/11 04:12:04;;;;;;;;;;;;;;;;;;5035361;28;19917;-84
2022/03/11 04:14:29;;;;;;;;;;;;;;;;;;5036266;28;19910;-82
2022/03/11 04:16:55;;;;;;;;;;;;;;;;;;5036244;28;19910;-83
2022/03/11 04:19:20;;;;;;;;;;;;;;;;;;5036374;28;19910;-85
2022/03/11 04:21:45;;;;;;;;;;;;;;;;;;5035887;28;19915;-83
2022/03/11 04:24:14;;;;;;;;;;;;;;;;;;5034524;28;19929;-82
2022/03/11 04:26:40;;;;;;;;;;;;;;;;;;5034212;28;19932;-85
2022/03/11 04:29:05;;;;;;;;;;;;;;;;;;5035325;28;20355;-85
2022/03/11 04:31:30;;;;;;;;;;;;;;;;;;5035896;28;19964;-84
2022/03/11 04:33:57;;;;;;;;;;;;;;;;;;5021024;28;19910;-84
2022/03/11 04:36:22;;;;;;;;;;;;;;;;;;5020657;28;19916;-85
2022/03/11 04:38:47;;;;;;;;;;;;;;;;;;5035786;28;19909;-84
2022/03/11 04:41:12;;;;;;;;;;;;;;;;;;5035041;28;19909;-82
2022/03/11 04:43:39;;;;;;;;;;;;;;;;;;5020152;28;19910;-82
2022/03/11 04:46:04;;;;;;;;;;;;;;;;;;5035516;28;20421;-85
2022/03/11 04:48:29;;;;;;;;;;;;;;;;;;5035762;28;20000;-85
2022/03/11 04:50:54;;;;;;;;;;;;;;;;;;5019673;28;19909;-84
2022/03/11 04:53:19;;;;;;;;;;;;;;;;;;5019577;28;20071;-84
2022/03/11 04:55:44;;;;;;;;;;;;;;;;;;5034766;28;19914;-86
2022/03/11 04:58:09;;;;;;;;;;;;;;;;;;5020160;28;20266;-83
2022/03/11 05:00:34;;;;;;;;;;;;;;;;;;5033880;28;19927;-82
2022/03/11 05:03:01;;;;;;;;;;;;;;;;;;5034589;28;19922;-85
2022/03/11 05:05:26;;;;;;;;;;;;;;;;;;5035600;28;19909;-83
2022/03/11 05:07:51;;;;;;;;;;;;;;;;;;5035413;28;19952;-84
2022/03/11 05:10:16;;;;;;;;;;;;;;;;;;5035954;28;19963;-84
2022/03/11 05:12:41;;;;;;;;;;;;;;;;;;5034499;28;19976;-83
2022/03/11 05:15:06;;;;;;;;;;;;;;;;;;5035879;28;19914;-85
2022/03/11 05:17:33;;;;;;;;;;;;;;;;;;5019684;28;19914;-83
2022/03/11 05:19:58;;;;;;;;;;;;;;;;;;5034998;28;19916;-84
2022/03/11 05:22:24;;;;;;;;;;;;;;;;;;5035393;28;19910;-84
2022/03/11 05:24:49;;;;;;;;;;;;;;;;;;5035700;28;19918;-84
2022/03/11 05:27:14;;;;;;;;;;;;;;;;;;5035235;28;19953;-84
2022/03/11 05:29:40;;;;;;;;;;;;;;;;;;5034033;28;19980;-83
2022/03/11 05:32:05;;;;;;;;;;;;;;;;;;5034738;28;19921;-85
2022/03/11 05:34:30;;;;;;;;;;;;;;;;;;5034291;28;19917;-82
2022/03/11 05:36:55;;;;;;;;;;;;;;;;;;5034038;28;20370;-84
2022/03/11 05:39:20;;;;;;;;;;;;;;;;;;5018589;28;19909;-84
2022/03/11 05:41:49;;;;;;;;;;;;;;;;;;5020179;28;19909;-85
2022/03/11 05:44:18;;;;;;;;;;;;;;;;;;5038109;28;19956;-85
2022/03/11 05:46:44;;;;;;;;;;;;;;;;;;5021928;28;20283;-84
2022/03/11 05:49:09;;;;;;;;;;;;;;;;;;5038230;28;19910;-84
2022/03/11 05:51:34;;;;;;;;;;;;;;;;;;5037083;28;20011;-82
2022/03/11 05:53:59;;;;;;;;;;;;;;;;;;5020671;28;19917;-82
2022/03/11 05:56:24;;;;;;;;;;;;;;;;;;5036215;28;19913;-83
2022/03/11 05:58:53;;;;;;;;;;;;;;;;;;5021410;28;19910;-83
2022/03/11 06:01:18;;;;;;;;;;;;;;;;;;5036480;28;19921;-82
2022/03/11 06:03:45;;;;;;;;;;;;;;;;;;5035436;28;19912;-83
2022/03/11 06:06:11;;;;;;;;;;;;;;;;;;5020474;28;19921;-84
2022/03/11 06:08:36;;;;;;;;;;;;;;;;;;5021052;28;19913;-84
2022/03/11 06:11:01;;;;;;;;;;;;;;;;;;5020047;28;19959;-84
2022/03/11 06:13:26;;;;;;;;;;;;;;;;;;5020271;28;19948;-83
2022/03/11 06:15:51;;;;;;;;;;;;;;;;;;5035702;28;19920;-81
2022/03/11 06:18:18;;;;;;;;;;;;;;;;;;5035075;28;19909;-82
2022/03/11 06:20:43;;;;;;;;;;;;;;;;;;5034821;28;19913;-82
2022/03/11 06:23:08;;;;;;;;;;;;;;;;;;5019490;28;19909;-83
2022/03/11 06:25:35;;;;;;;;;;;;;;;;;;5035004;28;19914;-82
2022/03/11 06:28:00;;;;;;;;;;;;;;;;;;5020018;28;20360;-84
2022/03/11 06:30:25;;;;;;;;;;;;;;;;;;5019382;28;19917;-85
2022/03/11 06:32:51;;;;;;;;;;;;;;;;;;5020238;28;19917;-81
2022/03/11 06:35:16;;;;;;;;;;;;;;;;;;5034173;28;19909;-82
2022/03/11 06:37:41;;;;;;;;;;;;;;;;;;5035341;28;19916;-82
2022/03/11 06:40:06;;;;;;;;;;;;;;;;;;5020234;28;19909;-85
2022/03/11 06:42:31;;;;;;;;;;;;;;;;;;5035992;28;20461;-82
2022/03/11 06:44:56;;;;;;;;;;;;;;;;;;5034910;28;19910;-83
2022/03/11 06:47:21;;;;;;;;;;;;;;;;;;5035335;28;19908;-82
2022/03/11 06:49:47;;;;;;;;;;;;;;;;;;5035780;28;19956;-84
2022/03/11 06:52:12;;;;;;;;;;;;;;;;;;5034556;28;19996;-81
2022/03/11 06:54:37;;;;;;;;;;;;;;;;;;5020419;28;19917;-83
2022/03/11 06:57:02;;;;;;;;;;;;;;;;;;5034190;28;19914;-83
2022/03/11 06:59:27;;;;;;;;;;;;;;;;;;5034306;28;19979;-83
2022/03/11 07:01:52;;;;;;;;;;;;;;;;;;5018055;28;20367;-81
2022/03/11 07:04:18;;;;;;;;;;;;;;;;;;5017539;28;19909;-82
2022/03/11 07:06:43;;;;;;;;;;;;;;;;;;5018017;28;19909;-84
2022/03/11 07:09:08;;;;;;;;;;;;;;;;;;5018240;28;19913;-83
2022/03/11 07:11:33;;;;;;;;;;;;;;;;;;5018614;28;19917;-83
2022/03/11 07:13:59;;;;;;;;;;;;;;;;;;5018634;28;20382;-85
2022/03/11 07:16:24;;;;;;;;;;;;;;;;;;5020289;28;19932;-85
2022/03/11 07:18:49;;;;;;;;;;;;;;;;;;5019009;28;19910;-83
2022/03/11 07:21:14;;;;;;;;;;;;;;;;;;5021152;28;20350;-84
2022/03/11 07:23:39;;;;;;;;;;;;;;;;;;5018932;28;19925;-84
2022/03/11 07:26:04;;;;;;;;;;;;;;;;;;5018990;28;19910;-85
2022/03/11 07:28:29;;;;;;;;;;;;;;;;;;5016572;28;20004;-86
2022/03/11 07:30:54;;;;;;;;;;;;;;;;;;5018508;28;19971;-85
2022/03/11 07:33:20;;;;;;;;;;;;;;;;;;5019088;28;19913;-85
2022/03/11 07:35:45;;;;;;;;;;;;;;;;;;5017807;28;19913;-82
2022/03/11 07:38:10;;;;;;;;;;;;;;;;;;5017703;28;20417;-83
2022/03/11 07:40:35;;;;;;;;;;;;;;;;;;5018137;28;19967;-82
2022/03/11 07:43:01;;;;;;;;;;;;;;;;;;5021565;28;19967;-84
2022/03/11 07:45:26;;;;;;;;;;;;;;;;;;5018289;28;20367;-85
2022/03/11 07:47:52;;;;;;;;;;;;;;;;;;5018646;28;19905;-85
2022/03/11 07:50:18;;;;;;;;;;;;;;;;;;5017537;28;20386;-85
2022/03/11 07:52:43;;;;;;;;;;;;;;;;;;5016711;28;19921;-84
2022/03/11 07:55:08;;;;;;;;;;;;;;;;;;5015631;28;19924;-85
2022/03/11 07:57:35;;;;;;;;;;;;;;;;;;5016417;28;19921;-85
2022/03/11 08:00:00;;;;;;;;;;;;;;;;;;5016187;28;19909;-84
2022/03/11 08:02:27;;;;;;;;;;;;;;;;;;5016988;28;20020;-86
2022/03/11 08:04:52;;;;;;;;;;;;;;;;;;5015898;28;19921;-84
2022/03/11 08:07:17;;;;;;;;;;;;;;;;;;5016535;28;19914;-84
2022/03/11 08:09:43;;;;;;;;;;;;;;;;;;5016397;28;19963;-83
2022/03/11 08:12:08;;;;;;;;;;;;;;;;;;5015705;28;19921;-83
2022/03/11 08:14:33;;;;;;;;;;;;;;;;;;5018420;28;19932;-85
2022/03/11 08:16:58;;;;;;;;;;;;;;;;;;5016770;28;20402;-84
2022/03/11 08:19:23;;;;;;;;;;;;;;;;;;5017252;28;20434;-84
2022/03/11 08:21:48;;;;;;;;;;;;;;;;;;5018371;28;19909;-85
2022/03/11 08:24:14;;;;;;;;;;;;;;;;;;5018194;28;19924;-86
2022/03/11 08:26:39;;;;;;;;;;;;;;;;;;5017017;28;19909;-85
2022/03/11 08:29:04;;;;;;;;;;;;;;;;;;5016482;28;19913;-85
2022/03/11 08:31:29;;;;;;;;;;;;;;;;;;5018960;28;19925;-84
2022/03/11 08:33:54;;;;;;;;;;;;;;;;;;5016834;28;19941;-87
2022/03/11 08:36:19;;;;;;;;;;;;;;;;;;5017459;28;20139;-85
2022/03/11 08:38:44;;;;;;;;;;;;;;;;;;5017182;28;19932;-85
2022/03/11 08:41:09;;;;;;;;;;;;;;;;;;5016877;28;19906;-85
2022/03/11 08:43:35;;;;;;;;;;;;;;;;;;5017984;28;19909;-82
2022/03/11 08:46:01;;;;;;;;;;;;;;;;;;5016975;28;19912;-86
2022/03/11 08:48:29;;;;;;;;;;;;;;;;;;5017314;28;20346;-86
2022/03/11 08:50:54;;;;;;;;;;;;;;;;;;5017353;28;19905;-83
2022/03/11 08:53:19;;;;;;;;;;;;;;;;;;5017797;28;19975;-86
2022/03/11 08:55:44;;;;;;;;;;;;;;;;;;5018293;28;19956;-86
2022/03/11 08:58:10;;;;;;;;;;;;;;;;;;5018032;28;19910;-84
2022/03/11 09:00:35;;;;;;;;;;;;;;;;;;5020027;28;19916;-85
2022/03/11 09:03:01;;;;;;;;;;;;;;;;;;5031818;28;20019;-84
2022/03/11 09:05:26;;;;;;;;;;;;;;;;;;5034481;28;19909;-85
2022/03/11 09:07:51;;;;;;;;;;;;;;;;;;5033216;28;19897;-85
2022/03/11 09:10:18;;;;;;;;;;;;;;;;;;5032187;28;20382;-87
2022/03/11 09:12:43;;;;;;;;;;;;;;;;;;5031264;28;19940;-86
2022/03/11 09:15:08;;;;;;;;;;;;;;;;;;5032507;28;19909;-85
2022/03/11 09:17:33;;;;;;;;;;;;;;;;;;5019965;28;19910;-87
2022/03/11 09:20:03;;;;;;;;;;;;;;;;;;5021585;28;20016;-84
2022/03/11 09:22:28;;;;;;;;;;;;;;;;;;5036256;28;20287;-86
2022/03/11 09:24:53;;;;;;;;;;;;;;;;;;5036535;28;19956;-85
2022/03/11 09:27:18;;;;;;;;;;;;;;;;;;5021097;28;20370;-88
2022/03/11 09:29:43;;;;;;;;;;;;;;;;;;5020175;28;20004;-85
2022/03/11 09:32:08;;;;;;;;;;;;;;;;;;5021149;28;19922;-87
2022/03/11 09:34:33;;;;;;;;;;;;;;;;;;5021273;28;19909;-86
2022/03/11 09:36:58;;;;;;;;;;;;;;;;;;5036864;28;20007;-84
2022/03/11 09:39:24;;;;;;;;;;;;;;;;;;5020387;28;19916;-84
2022/03/11 09:41:49;;;;;;;;;;;;;;;;;;5036686;28;20351;-85
2022/03/11 09:44:14;;;;;;;;;;;;;;;;;;5036095;28;19909;-83
2022/03/11 09:46:39;;;;;;;;;;;;;;;;;;5035915;28;20296;-85
2022/03/11 09:49:04;;;;;;;;;;;;;;;;;;5021565;28;20000;-87
2022/03/11 09:51:29;;;;;;;;;;;;;;;;;;5036666;28;19925;-86
2022/03/11 09:53:54;;;;;;;;;;;;;;;;;;5036819;28;19964;-87
2022/03/11 09:56:21;;;;;;;;;;;;;;;;;;5035709;28;19901;-87
2022/03/11 09:58:47;;;;;;;;;;;;;;;;;;5036599;28;19917;-87
2022/03/11 10:01:12;;;;;;;;;;;;;;;;;;5019741;28;19913;-83
2022/03/11 10:03:38;;;;;;;;;;;;;;;;;;5019512;28;19910;-84
2022/03/11 10:06:04;;;;;;;;;;;;;;;;;;5020015;28;19910;-85
2022/03/11 10:08:30;;;;;;;;;;;;;;;;;;5020540;28;20426;-85
2022/03/11 10:10:55;;;;;;;;;;;;;;;;;;5019132;28;19916;-84
2022/03/11 10:13:20;;;;;;;;;;;;;;;;;;5018348;28;19913;-85
2022/03/11 10:15:45;;;;;;;;;;;;;;;;;;5018291;28;19909;-83
2022/03/11 10:18:11;;;;;;;;;;;;;;;;;;5017555;28;19920;-83
2022/03/11 10:20:36;;;;;;;;;;;;;;;;;;5018167;28;19921;-84
2022/03/11 10:23:01;;;;;;;;;;;;;;;;;;4995849;28;20375;-82
2022/03/11 10:25:28;;;;;;;;;;;;;;;;;;5019958;28;20008;-84
2022/03/11 10:27:53;;;;;;;;;;;;;;;;;;4999173;28;19917;-84
2022/03/11 10:30:19;;;;;;;;;;;;;;;;;;5009410;28;19914;-84
2022/03/11 10:32:44;;;;;;;;;;;;;;;;;;5017794;28;19917;-83
2022/03/11 10:35:09;;;;;;;;;;;;;;;;;;5017425;28;19909;-88
2022/03/11 10:37:35;;;;;;;;;;;;;;;;;;5019797;28;19999;-87
2022/03/11 10:40:00;;;;;;;;;;;;;;;;;;5020088;28;19913;-85
2022/03/11 10:42:27;;;;;;;;;;;;;;;;;;5018867;28;19917;-85
2022/03/11 10:44:52;;;;;;;;;;;;;;;;;;5018927;28;19916;-86
2022/03/11 10:47:18;;;;;;;;;;;;;;;;;;5019470;28;19909;-85
2022/03/11 10:49:43;;;;;;;;;;;;;;;;;;5018183;28;19916;-86
2022/03/11 10:52:08;;;;;;;;;;;;;;;;;;5018344;28;19917;-86
2022/03/11 10:54:33;;;;;;;;;;;;;;;;;;5018860;28;19971;-88
2022/03/11 10:56:58;;;;;;;;;;;;;;;;;;5019126;28;20279;-87
2022/03/11 10:59:23;;;;;;;;;;;;;;;;;;5019364;28;19916;-88
2022/03/11 11:01:48;;;;;;;;;;;;;;;;;;5023402;28;19928;-89
2022/03/11 11:04:13;;;;;;;;;;;;;;;;;;5019613;28;19917;-81
2022/03/11 11:06:39;;;;;;;;;;;;;;;;;;5018341;28;20383;-86
2022/03/11 11:09:04;;;;;;;;;;;;;;;;;;5034711;28;19909;-86
2022/03/11 11:11:29;;;;;;;;;;;;;;;;;;5019191;28;19917;-86
2022/03/11 11:13:54;;;;;;;;;;;;;;;;;;5019336;28;19909;-86
2022/03/11 11:16:19;;;;;;;;;;;;;;;;;;5034290;28;19968;-85
2022/03/11 11:18:46;;;;;;;;;;;;;;;;;;5034750;28;19981;-84
2022/03/11 11:21:11;;;;;;;;;;;;;;;;;;5018703;28;19975;-86
2022/03/11 11:23:37;;;;;;;;;;;;;;;;;;5017883;28;19921;-88
2022/03/11 11:26:02;;;;;;;;;;;;;;;;;;5034516;28;19914;-87
2022/03/11 11:28:27;;;;;;;;;;;;;;;;;;5019104;28;19910;-87
2022/03/11 11:30:52;;;;;;;;;;;;;;;;;;5033566;28;20278;-86
2022/03/11 11:33:17;;;;;;;;;;;;;;;;;;5034128;28;19949;-86
2022/03/11 11:35:44;;;;;;;;;;;;;;;;;;5018551;28;20155;-85
2022/03/11 11:38:09;;;;;;;;;;;;;;;;;;5033380;28;19910;-81
2022/03/11 11:40:35;;;;;;;;;;;;;;;;;;5018071;28;19909;-87
2022/03/11 11:43:00;;;;;;;;;;;;;;;;;;5033852;28;19996;-87
2022/03/11 11:45:25;;;;;;;;;;;;;;;;;;5033163;28;19909;-85
2022/03/11 11:47:50;;;;;;;;;;;;;;;;;;5017269;28;19910;-84
2022/03/11 11:50:16;;;;;;;;;;;;;;;;;;5016885;28;19921;-85
2022/03/11 11:52:41;;;;;;;;;;;;;;;;;;5018561;28;19929;-86
2022/03/11 11:55:08;;;;;;;;;;;;;;;;;;5019700;28;19918;-83
2022/03/11 11:57:33;;;;;;;;;;;;;;;;;;5017686;28;19915;-85
2022/03/11 11:59:58;;;;;;;;;;;;;;;;;;5017330;28;19964;-85
2022/03/11 12:02:23;;;;;;;;;;;;;;;;;;5017767;28;20056;-86
2022/03/11 12:04:49;;;;;;;;;;;;;;;;;;5018127;28;19909;-87
2022/03/11 12:07:14;;;;;;;;;;;;;;;;;;5018509;28;19914;-87
2022/03/11 12:09:42;;;;;;;;;;;;;;;;;;5016902;28;19910;-87
2022/03/11 12:12:08;;;;;;;;;;;;;;;;;;5017106;28;20334;-87
2022/03/11 12:14:33;;;;;;;;;;;;;;;;;;5018972;28;20019;-82
2022/03/11 12:16:58;;;;;;;;;;;;;;;;;;5017901;28;20406;-83
2022/03/11 12:19:23;;;;;;;;;;;;;;;;;;5016532;28;19916;-84
2022/03/11 12:21:48;;;;;;;;;;;;;;;;;;5016004;28;19893;-83
2022/03/11 12:24:13;;;;;;;;;;;;;;;;;;5015669;28;19918;-84
2022/03/11 12:26:38;;;;;;;;;;;;;;;;;;5015574;28;19910;-83
2022/03/11 12:29:03;;;;;;;;;;;;;;;;;;5015646;28;19916;-81
2022/03/11 12:31:28;;;;;;;;;;;;;;;;;;5015822;28;20378;-82
2022/03/11 12:33:54;;;;;;;;;;;;;;;;;;5018434;28;19910;-85
2022/03/11 12:36:19;;;;;;;;;;;;;;;;;;5017614;28;19910;-85
2022/03/11 12:38:44;;;;;;;;;;;;;;;;;;5017380;28;19909;-86
2022/03/11 12:41:10;;;;;;;;;;;;;;;;;;5017409;28;20278;-85
2022/03/11 12:43:35;;;;;;;;;;;;;;;;;;5016357;28;19928;-88
2022/03/11 12:46:00;;;;;;;;;;;;;;;;;;5018343;28;19916;-86
2022/03/11 12:48:25;;;;;;;;;;;;;;;;;;5018601;28;19917;-82
2022/03/11 12:50:50;;;;;;;;;;;;;;;;;;5019258;28;20422;-87
2022/03/11 12:53:16;;;;;;;;;;;;;;;;;;5019980;28;19916;-87
2022/03/11 12:55:41;;;;;;;;;;;;;;;;;;5021318;28;20283;-87
2022/03/11 12:58:06;;;;;;;;;;;;;;;;;;5018728;28;19976;-84
2022/03/11 13:00:31;;;;;;;;;;;;;;;;;;5018656;28;19948;-86
2022/03/11 13:02:56;;;;;;;;;;;;;;;;;;5017630;28;19992;-84
2022/03/11 13:05:21;;;;;;;;;;;;;;;;;;5018227;28;19909;-82
2022/03/11 13:07:47;;;;;;;;;;;;;;;;;;5019137;28;19952;-87
2022/03/11 13:10:12;;;;;;;;;;;;;;;;;;5019763;28;19996;-87
2022/03/11 13:12:37;;;;;;;;;;;;;;;;;;5019827;28;20433;-86
2022/03/11 13:15:02;;;;;;;;;;;;;;;;;;5020178;28;19992;-87
2022/03/11 13:17:27;;;;;;;;;;;;;;;;;;5021093;28;19945;-88
2022/03/11 13:19:52;;;;;;;;;;;;;;;;;;5020418;28;19916;-87
2022/03/11 13:22:17;;;;;;;;;;;;;;;;;;5021171;28;19909;-84
2022/03/11 13:24:42;;;;;;;;;;;;;;;;;;5021619;28;19909;-88
2022/03/11 13:27:08;;;;;;;;;;;;;;;;;;5020881;28;20278;-86
2022/03/11 13:29:33;;;;;;;;;;;;;;;;;;5019853;28;19914;-84
2022/03/11 13:31:58;;;;;;;;;;;;;;;;;;5021140;28;19917;-86
2022/03/11 13:34:23;;;;;;;;;;;;;;;;;;5016404;28;19998;-86
2022/03/11 13:36:50;;;;;;;;;;;;;;;;;;5012007;28;19989;-88
2022/03/11 13:39:15;;;;;;;;;;;;;;;;;;5018196;28;20521;-83
2022/03/11 13:41:47;;;;;;;;;;;;;;;;;;5019226;28;20064;-86
2022/03/11 13:44:12;;;;;;;;;;;;;;;;;;5002957;28;20367;-87
2022/03/11 13:46:37;;;;;;;;;;;;;;;;;;5002325;28;19909;-81
2022/03/11 13:49:02;;;;;;;;;;;;;;;;;;5025620;28;19921;-89
2022/03/11 13:51:29;;;;;;;;;;;;;;;;;;5026212;28;20283;-87
2022/03/11 13:53:54;;;;;;;;;;;;;;;;;;5053828;28;19963;-85
2022/03/11 13:56:19;;;;;;;;;;;;;;;;;;5039134;28;19909;-85
2022/03/11 13:58:44;;;;;;;;;;;;;;;;;;5035363;28;19937;-85
2022/03/11 14:01:09;;;;;;;;;;;;;;;;;;5036119;28;20386;-86
2022/03/11 14:03:34;;;;;;;;;;;;;;;;;;5018762;28;19909;-86
2022/03/11 14:06:00;;;;;;;;;;;;;;;;;;5019276;28;19916;-84
2022/03/11 14:08:26;;;;;;;;;;;;;;;;;;5021685;28;19967;-84
2022/03/11 14:10:51;;;;;;;;;;;;;;;;;;5028714;28;19999;-86
2022/03/11 14:13:16;;;;;;;;;;;;;;;;;;5017328;28;19928;-84
2022/03/11 14:15:42;;;;;;;;;;;;;;;;;;5019200;28;20286;-84
2022/03/11 14:18:11;;;;;;;;;;;;;;;;;;5009787;28;19917;-84
2022/03/11 14:20:37;;;;;;;;;;;;;;;;;;5029933;28;19916;-84
2022/03/11 14:23:03;;;;;;;;;;;;;;;;;;5011095;28;20106;-81
2022/03/11 14:25:28;;;;;;;;;;;;;;;;;;5019695;28;20000;-85
2022/03/11 14:27:53;;;;;;;;;;;;;;;;;;5021410;28;20353;-84
2022/03/11 14:30:19;;;;;;;;;;;;;;;;;;5012802;28;19921;-82
2022/03/11 14:32:44;;;;;;;;;;;;;;;;;;5023802;28;19979;-80
2022/03/11 14:35:09;;;;;;;;;;;;;;;;;;5017088;28;19917;-81
2022/03/11 14:37:35;;;;;;;;;;;;;;;;;;5019061;28;19909;-82
2022/03/11 14:40:01;;;;;;;;;;;;;;;;;;5019762;28;19916;-82
2022/03/11 14:42:28;;;;;;;;;;;;;;;;;;5018288;28;20381;-84
2022/03/11 14:44:53;;;;;;;;;;;;;;;;;;5017673;28;19916;-83
2022/03/11 14:47:18;;;;;;;;;;;;;;;;;;5018086;28;19898;-80
2022/03/11 14:49:47;;;;;;;;;;;;;;;;;;5017889;28;20020;-82
2022/03/11 14:52:12;;;;;;;;;;;;;;;;;;5016130;28;19921;-80
2022/03/11 14:54:37;;;;;;;;;;;;;;;;;;5024859;28;19924;-83
2022/03/11 14:57:02;;;;;;;;;;;;;;;;;;5030970;28;19932;-83
2022/03/11 14:59:29;;;;;;;;;;;;;;;;;;5018650;28;20420;-81
2022/03/11 15:01:54;;;;;;;;;;;;;;;;;;5022101;28;19928;-86
2022/03/11 15:04:19;;;;;;;;;;;;;;;;;;5030378;28;19893;-84
2022/03/11 15:06:44;;;;;;;;;;;;;;;;;;5030997;28;20266;-82
2022/03/11 15:09:09;;;;;;;;;;;;;;;;;;5024565;28;19910;-82
2022/03/11 15:11:34;;;;;;;;;;;;;;;;;;5026360;28;19917;-84
2022/03/11 15:14:01;;;;;;;;;;;;;;;;;;5009130;28;19913;-83
2022/03/11 15:16:26;;;;;;;;;;;;;;;;;;5023223;28;19956;-83
2022/03/11 15:18:53;;;;;;;;;;;;;;;;;;5016965;28;20393;-87
2022/03/11 15:21:18;;;;;;;;;;;;;;;;;;5008482;28;19916;-83
2022/03/11 15:23:43;;;;;;;;;;;;;;;;;;5009204;28;20007;-82
2022/03/11 15:26:08;;;;;;;;;;;;;;;;;;5015398;28;20316;-83
2022/03/11 15:28:33;;;;;;;;;;;;;;;;;;5029209;28;19946;-83
2022/03/11 15:30:58;;;;;;;;;;;;;;;;;;5010214;28;19976;-83
2022/03/11 15:33:23;;;;;;;;;;;;;;;;;;5002676;28;19965;-83
2022/03/11 15:35:48;;;;;;;;;;;;;;;;;;4998354;28;20390;-82
2022/03/11 15:38:14;;;;;;;;;;;;;;;;;;4998768;28;19928;-82
2022/03/11 15:40:39;;;;;;;;;;;;;;;;;;4997379;28;19916;-79
2022/03/11 15:43:05;;;;;;;;;;;;;;;;;;4995767;28;20033;-82
2022/03/11 15:45:30;;;;;;;;;;;;;;;;;;4996744;28;20451;-81
2022/03/11 15:47:55;;;;;;;;;;;;;;;;;;4995388;28;20348;-80
2022/03/11 15:50:21;;;;;;;;;;;;;;;;;;4997397;28;19993;-84
2022/03/11 15:52:46;;;;;;;;;;;;;;;;;;4999446;28;19944;-88
2022/03/11 15:55:15;;;;;;;;;;;;;;;;;;5017506;28;20372;-83
2022/03/11 15:57:40;;;;;;;;;;;;;;;;;;5024411;28;19909;-82
2022/03/11 16:00:05;;;;;;;;;;;;;;;;;;5017066;28;19909;-79
2022/03/11 16:02:30;;;;;;;;;;;;;;;;;;5027352;28;19932;-81
2022/03/11 16:04:55;;;;;;;;;;;;;;;;;;5022376;28;19932;-83
2022/03/11 16:07:20;;;;;;;;;;;;;;;;;;5028290;28;19916;-82
2022/03/11 16:09:45;;;;;;;;;;;;;;;;;;5026437;28;19909;-84
2022/03/11 16:12:11;;;;;;;;;;;;;;;;;;5036368;28;20382;-83
2022/03/11 16:14:36;;;;;;;;;;;;;;;;;;5033641;28;19936;-82
2022/03/11 16:17:01;;;;;;;;;;;;;;;;;;5034034;28;19909;-80
2022/03/11 16:19:26;;;;;;;;;;;;;;;;;;5035322;28;19909;-82
2022/03/11 16:21:51;;;;;;;;;;;;;;;;;;5035147;28;19967;-82
2022/03/11 16:24:16;;;;;;;;;;;;;;;;;;5035696;28;19914;-83
2022/03/11 16:26:41;;;;;;;;;;;;;;;;;;5035646;28;19967;-83
2022/03/11 16:29:06;;;;;;;;;;;;;;;;;;5035489;28;19909;-83
2022/03/11 16:31:32;;;;;;;;;;;;;;;;;;5028142;28;19925;-85